Time;durP1;ratioP1;P1;durP2;ratioP2;P2;SDS_P1;SDS_P2;PMS_P1;PMS_P2;Temp;Humidity;BMP_temperature;BMP_pressure;BME280_temperature;BME280_humidity;BME280_pressure;Samples;Min_cycle;Max_cycle;Signal;HPM_P1;HPM_P2
2022/07/12 00:00:02;;;;;;;;;;;;;;;;;;8423735;27;27221;-74
2022/07/12 00:04:02;;;;;;;;;;;;;;;;;;8422094;27;29156;-75
2022/07/12 00:08:02;;;;;;;;;;;;;;;;;;8430728;27;27387;-74
2022/07/12 00:12:02;;;;;;;;;;;;;;;;;;8436299;27;27323;-74
2022/07/12 00:16:03;;;;;;;;;;;;;;;;;;8424962;27;27261;-74
2022/07/12 00:20:03;;;;;;;;;;;;;;;;;;8428294;27;27260;-75
2022/07/12 00:24:03;;;;;;;;;;;;;;;;;;8422295;27;28344;-75
2022/07/12 00:28:03;;;;;;;;;;;;;;;;;;8424284;27;27577;-74
2022/07/12 00:32:03;;;;;;;;;;;;;;;;;;8436515;27;27124;-75
2022/07/12 00:36:04;;;;;;;;;;;;;;;;;;8424088;27;28415;-75
2022/07/12 00:40:04;;;;;;;;;;;;;;;;;;8423688;27;27800;-74
2022/07/12 00:44:04;;;;;;;;;;;;;;;;;;8428114;27;27264;-74
2022/07/12 00:48:04;;;;;;;;;;;;;;;;;;8423785;27;28399;-74
2022/07/12 00:52:04;;;;;;;;;;;;;;;;;;8431436;27;27118;-74
2022/07/12 00:56:05;;;;;;;;;;;;;;;;;;8433315;27;27232;-74
2022/07/12 01:00:05;;;;;;;;;;;;;;;;;;8425966;27;28444;-74
2022/07/12 01:04:06;;;;;;;;;;;;;;;;;;8430752;27;27425;-74
2022/07/12 01:08:06;;;;;;;;;;;;;;;;;;8422669;27;27301;-74
2022/07/12 01:12:06;;;;;;;;;;;;;;;;;;8430427;27;28233;-74
2022/07/12 01:16:06;;;;;;;;;;;;;;;;;;8427140;27;27301;-74
2022/07/12 01:20:07;;;;;;;;;;;;;;;;;;8425144;27;27166;-74
2022/07/12 01:24:07;;;;;;;;;;;;;;;;;;8426208;27;27628;-74
2022/07/12 01:28:07;;;;;;;;;;;;;;;;;;8428504;27;27819;-74
2022/07/12 01:32:26;;;;;;;;;;;;;;;;;;8431910;27;28362;-75
2022/07/12 01:36:26;;;;;;;;;;;;;;;;;;8433540;27;28527;-74
2022/07/12 01:40:27;;;;;;;;;;;;;;;;;;8428668;27;28601;-74
2022/07/12 01:44:27;;;;;;;;;;;;;;;;;;8433435;27;27252;-74
2022/07/12 01:48:27;;;;;;;;;;;;;;;;;;8430648;27;28369;-74
2022/07/12 01:52:27;;;;;;;;;;;;;;;;;;8440106;27;28462;-74
2022/07/12 01:56:27;;;;;;;;;;;;;;;;;;8430564;27;27104;-74
2022/07/12 02:00:27;;;;;;;;;;;;;;;;;;8428406;27;28792;-74
2022/07/12 02:04:27;;;;;;;;;;;;;;;;;;8429092;27;27147;-74
2022/07/12 02:08:28;;;;;;;;;;;;;;;;;;8437851;27;27281;-74
2022/07/12 02:12:28;;;;;;;;;;;;;;;;;;8435920;27;27366;-74
2022/07/12 02:16:28;;;;;;;;;;;;;;;;;;8436444;27;27350;-74
2022/07/12 02:20:28;;;;;;;;;;;;;;;;;;8428241;27;27239;-74
2022/07/12 02:24:28;;;;;;;;;;;;;;;;;;8431722;27;28004;-75
2022/07/12 02:28:29;;;;;;;;;;;;;;;;;;8431488;27;27191;-74
2022/07/12 02:32:29;;;;;;;;;;;;;;;;;;8459602;27;28506;-74
2022/07/12 02:36:29;;;;;;;;;;;;;;;;;;8432133;27;27349;-74
2022/07/12 02:44:48;;;;;;;;;;;;;;;;;;8423930;27;27115;-74
2022/07/12 02:48:49;;;;;;;;;;;;;;;;;;8432202;27;28382;-75
2022/07/12 02:52:49;;;;;;;;;;;;;;;;;;8425555;27;27921;-74
2022/07/12 02:56:49;;;;;;;;;;;;;;;;;;8430253;27;28706;-74
2022/07/12 03:00:49;;;;;;;;;;;;;;;;;;8422854;27;27472;-74
2022/07/12 03:04:49;;;;;;;;;;;;;;;;;;8432864;27;27700;-74
2022/07/12 03:08:50;;;;;;;;;;;;;;;;;;8425372;27;27512;-74
2022/07/12 03:12:50;;;;;;;;;;;;;;;;;;8429559;27;27332;-74
2022/07/12 03:16:50;;;;;;;;;;;;;;;;;;8430894;27;27928;-74
2022/07/12 03:20:50;;;;;;;;;;;;;;;;;;8420314;27;27237;-74
2022/07/12 03:24:51;;;;;;;;;;;;;;;;;;8422503;27;27567;-74
2022/07/12 03:28:51;;;;;;;;;;;;;;;;;;8426144;27;27944;-74
2022/07/12 03:32:51;;;;;;;;;;;;;;;;;;8431224;27;27162;-74
2022/07/12 03:36:51;;;;;;;;;;;;;;;;;;8424245;27;27342;-74
2022/07/12 03:40:52;;;;;;;;;;;;;;;;;;8425755;27;28628;-74
2022/07/12 03:44:52;;;;;;;;;;;;;;;;;;8424596;27;27666;-74
2022/07/12 03:48:52;;;;;;;;;;;;;;;;;;8432671;27;27544;-75
2022/07/12 03:52:52;;;;;;;;;;;;;;;;;;8432971;27;27563;-74
2022/07/12 04:01:11;;;;;;;;;;;;;;;;;;8421562;27;27409;-74
2022/07/12 04:05:11;;;;;;;;;;;;;;;;;;8427181;27;27119;-74
2022/07/12 04:09:12;;;;;;;;;;;;;;;;;;8426764;27;27652;-74
2022/07/12 04:13:12;;;;;;;;;;;;;;;;;;8427224;27;27427;-74
2022/07/12 04:17:12;;;;;;;;;;;;;;;;;;8433550;27;27311;-74
2022/07/12 04:21:12;;;;;;;;;;;;;;;;;;8422776;27;27158;-74
2022/07/12 04:25:12;;;;;;;;;;;;;;;;;;8428268;27;27892;-74
2022/07/12 04:29:12;;;;;;;;;;;;;;;;;;8421524;27;27313;-74
2022/07/12 04:33:13;;;;;;;;;;;;;;;;;;8433250;27;28050;-75
2022/07/12 04:37:13;;;;;;;;;;;;;;;;;;8428611;27;27368;-75
2022/07/12 04:41:13;;;;;;;;;;;;;;;;;;8430224;27;27653;-74
2022/07/12 04:45:13;;;;;;;;;;;;;;;;;;8429252;27;27439;-74
2022/07/12 04:49:13;;;;;;;;;;;;;;;;;;8419612;27;27304;-74
2022/07/12 04:53:13;;;;;;;;;;;;;;;;;;8426047;27;27411;-75
2022/07/12 04:57:14;;;;;;;;;;;;;;;;;;8424782;27;27182;-74
2022/07/12 05:01:14;;;;;;;;;;;;;;;;;;8425747;27;28515;-74
2022/07/12 05:05:15;;;;;;;;;;;;;;;;;;8427950;27;27069;-74
2022/07/12 05:09:15;;;;;;;;;;;;;;;;;;8427624;27;27210;-74
2022/07/12 05:13:15;;;;;;;;;;;;;;;;;;8434049;27;27179;-74
2022/07/12 05:17:15;;;;;;;;;;;;;;;;;;8438911;27;28191;-74
2022/07/12 05:21:15;;;;;;;;;;;;;;;;;;8444149;27;27388;-74
2022/07/12 05:25:16;;;;;;;;;;;;;;;;;;8434600;27;28120;-74
2022/07/12 05:29:16;;;;;;;;;;;;;;;;;;8451257;27;27227;-74
2022/07/12 05:33:16;;;;;;;;;;;;;;;;;;8445107;27;27114;-74
2022/07/12 05:37:16;;;;;;;;;;;;;;;;;;8432626;27;27292;-74
2022/07/12 05:41:17;;;;;;;;;;;;;;;;;;8440571;27;27088;-74
2022/07/12 05:45:17;;;;;;;;;;;;;;;;;;8436919;27;27366;-74
2022/07/12 05:49:17;;;;;;;;;;;;;;;;;;8438651;27;27381;-74
2022/07/12 05:53:23;;;;;;;;;;;;;;;;;;8430564;27;27274;-74
2022/07/12 05:57:23;;;;;;;;;;;;;;;;;;8435271;27;27334;-75
2022/07/12 06:01:23;;;;;;;;;;;;;;;;;;8429154;27;27250;-74
2022/07/12 06:05:23;;;;;;;;;;;;;;;;;;8432052;27;27291;-74
2022/07/12 06:09:23;;;;;;;;;;;;;;;;;;8431081;27;27678;-74
2022/07/12 06:13:24;;;;;;;;;;;;;;;;;;8429890;27;27197;-74
2022/07/12 06:17:24;;;;;;;;;;;;;;;;;;8435924;27;28393;-73
2022/07/12 06:21:26;;;;;;;;;;;;;;;;;;8428776;27;48586;-74
2022/07/12 06:25:26;;;;;;;;;;;;;;;;;;8434831;27;27578;-74
2022/07/12 06:29:26;;;;;;;;;;;;;;;;;;8438586;27;28348;-74
2022/07/12 06:33:29;;;;;;;;;;;;;;;;;;8437051;27;27152;-73
2022/07/12 06:37:29;;;;;;;;;;;;;;;;;;8430466;27;27761;-73
2022/07/12 06:41:29;;;;;;;;;;;;;;;;;;8437464;27;27214;-73
2022/07/12 06:45:29;;;;;;;;;;;;;;;;;;8440570;27;27818;-73
2022/07/12 06:49:32;;;;;;;;;;;;;;;;;;8441951;27;27222;-73
2022/07/12 06:53:32;;;;;;;;;;;;;;;;;;8449517;27;27441;-73
2022/07/12 06:57:33;;;;;;;;;;;;;;;;;;8435547;27;27724;-73
2022/07/12 07:01:33;;;;;;;;;;;;;;;;;;8431637;27;27189;-73
2022/07/12 07:05:33;;;;;;;;;;;;;;;;;;8434310;27;27378;-73
2022/07/12 07:09:34;;;;;;;;;;;;;;;;;;8429917;27;27145;-73
2022/07/12 07:13:34;;;;;;;;;;;;;;;;;;8438895;27;27103;-73
2022/07/12 07:17:34;;;;;;;;;;;;;;;;;;8436498;27;28037;-73
2022/07/12 07:21:35;;;;;;;;;;;;;;;;;;8431695;27;29613;-74
2022/07/12 07:25:35;;;;;;;;;;;;;;;;;;8437412;27;27230;-73
2022/07/12 07:33:54;;;;;;;;;;;;;;;;;;8438485;27;27153;-74
2022/07/12 07:37:54;;;;;;;;;;;;;;;;;;8427254;27;27139;-73
2022/07/12 07:41:54;;;;;;;;;;;;;;;;;;8429136;27;27214;-74
2022/07/12 07:45:54;;;;;;;;;;;;;;;;;;8428411;27;27423;-74
2022/07/12 07:49:54;;;;;;;;;;;;;;;;;;8436450;27;27302;-74
2022/07/12 07:53:55;;;;;;;;;;;;;;;;;;8430759;27;28486;-74
2022/07/12 07:57:55;;;;;;;;;;;;;;;;;;8422872;27;27416;-74
2022/07/12 08:01:55;;;;;;;;;;;;;;;;;;8428105;27;27409;-74
2022/07/12 08:05:57;;;;;;;;;;;;;;;;;;8421057;27;27272;-74
2022/07/12 08:09:57;;;;;;;;;;;;;;;;;;8432393;27;27326;-74
2022/07/12 08:13:59;;;;;;;;;;;;;;;;;;8427882;27;27323;-74
2022/07/12 08:18:00;;;;;;;;;;;;;;;;;;8426528;27;27371;-73
2022/07/12 08:22:00;;;;;;;;;;;;;;;;;;8421005;27;27304;-73
2022/07/12 08:26:00;;;;;;;;;;;;;;;;;;8419880;27;27393;-73
2022/07/12 08:30:00;;;;;;;;;;;;;;;;;;8410434;27;27507;-73
2022/07/12 08:34:00;;;;;;;;;;;;;;;;;;8408002;27;27217;-73
2022/07/12 08:38:00;;;;;;;;;;;;;;;;;;8410482;27;27211;-73
2022/07/12 08:42:01;;;;;;;;;;;;;;;;;;8407529;27;27356;-73
2022/07/12 08:46:01;;;;;;;;;;;;;;;;;;8409429;27;27642;-73
2022/07/12 08:50:01;;;;;;;;;;;;;;;;;;8407571;27;27399;-73
2022/07/12 08:54:01;;;;;;;;;;;;;;;;;;8407962;27;27371;-73
2022/07/12 08:58:02;;;;;;;;;;;;;;;;;;8412589;27;28191;-73
2022/07/12 09:02:02;;;;;;;;;;;;;;;;;;8411751;27;27388;-73
2022/07/12 09:06:02;;;;;;;;;;;;;;;;;;8410983;27;28660;-72
2022/07/12 09:10:02;;;;;;;;;;;;;;;;;;8406960;27;28275;-73
2022/07/12 09:14:02;;;;;;;;;;;;;;;;;;8409039;27;27130;-72
2022/07/12 09:18:03;;;;;;;;;;;;;;;;;;8413079;27;27377;-73
2022/07/12 09:22:04;;;;;;;;;;;;;;;;;;8410698;27;27124;-73
2022/07/12 09:26:04;;;;;;;;;;;;;;;;;;8408937;27;27451;-72
2022/07/12 09:30:04;;;;;;;;;;;;;;;;;;8408087;27;27843;-72
2022/07/12 09:38:23;;;;;;;;;;;;;;;;;;8406931;27;27878;-73
2022/07/12 09:42:23;;;;;;;;;;;;;;;;;;8411217;27;28215;-72
2022/07/12 09:46:24;;;;;;;;;;;;;;;;;;8409687;27;27271;-72
2022/07/12 09:50:24;;;;;;;;;;;;;;;;;;8405550;27;27287;-72
2022/07/12 09:54:25;;;;;;;;;;;;;;;;;;8410115;27;27260;-72
2022/07/12 09:58:25;;;;;;;;;;;;;;;;;;8421734;27;28487;-73
2022/07/12 10:02:25;;;;;;;;;;;;;;;;;;8426688;27;27365;-73
2022/07/12 10:06:25;;;;;;;;;;;;;;;;;;8424810;27;27112;-72
2022/07/12 10:10:25;;;;;;;;;;;;;;;;;;8423276;27;27293;-72
2022/07/12 10:14:25;;;;;;;;;;;;;;;;;;8459495;27;46303;-73
2022/07/12 10:18:26;;;;;;;;;;;;;;;;;;8429388;27;27306;-73
2022/07/12 10:22:26;;;;;;;;;;;;;;;;;;8434681;27;27658;-73
2022/07/12 10:26:26;;;;;;;;;;;;;;;;;;8430719;27;27162;-73
2022/07/12 10:30:26;;;;;;;;;;;;;;;;;;8432456;27;27421;-73
2022/07/12 10:34:29;;;;;;;;;;;;;;;;;;8429192;27;27676;-73
2022/07/12 10:38:29;;;;;;;;;;;;;;;;;;8433295;27;27329;-73
2022/07/12 10:42:29;;;;;;;;;;;;;;;;;;8439888;27;28104;-73
2022/07/12 10:46:30;;;;;;;;;;;;;;;;;;8431821;27;27252;-74
2022/07/12 10:50:30;;;;;;;;;;;;;;;;;;8430326;27;27784;-74
2022/07/12 10:54:31;;;;;;;;;;;;;;;;;;8425555;27;27572;-74
2022/07/12 10:58:31;;;;;;;;;;;;;;;;;;8429010;27;27073;-74
2022/07/12 11:02:31;;;;;;;;;;;;;;;;;;8432747;27;28530;-74
2022/07/12 11:06:32;;;;;;;;;;;;;;;;;;8434121;27;27307;-74
2022/07/12 11:10:32;;;;;;;;;;;;;;;;;;8444104;27;27831;-74
2022/07/12 11:14:33;;;;;;;;;;;;;;;;;;8433245;27;27184;-74
2022/07/12 11:18:34;;;;;;;;;;;;;;;;;;8436069;27;28704;-74
2022/07/12 11:22:34;;;;;;;;;;;;;;;;;;8425496;27;27282;-74
2022/07/12 11:26:35;;;;;;;;;;;;;;;;;;8428514;27;27222;-74
2022/07/12 11:30:35;;;;;;;;;;;;;;;;;;8433920;27;27443;-74
2022/07/12 11:34:35;;;;;;;;;;;;;;;;;;8440598;27;27430;-74
2022/07/12 11:38:35;;;;;;;;;;;;;;;;;;8431360;27;27425;-73
2022/07/12 11:42:35;;;;;;;;;;;;;;;;;;8444037;27;27379;-74
2022/07/12 11:46:35;;;;;;;;;;;;;;;;;;8433823;27;27369;-74
2022/07/12 11:50:36;;;;;;;;;;;;;;;;;;8427413;27;28048;-74
2022/07/12 11:54:36;;;;;;;;;;;;;;;;;;8431581;27;27743;-74
2022/07/12 11:58:38;;;;;;;;;;;;;;;;;;8429984;27;27297;-74
2022/07/12 12:02:38;;;;;;;;;;;;;;;;;;8426423;27;27618;-74
2022/07/12 12:06:38;;;;;;;;;;;;;;;;;;8424730;27;27336;-73
2022/07/12 12:10:38;;;;;;;;;;;;;;;;;;8429998;27;27436;-74
2022/07/12 12:14:39;;;;;;;;;;;;;;;;;;8431117;27;28310;-74
2022/07/12 12:18:39;;;;;;;;;;;;;;;;;;8429171;27;27272;-73
2022/07/12 12:22:40;;;;;;;;;;;;;;;;;;8425424;27;27574;-74
2022/07/12 12:26:40;;;;;;;;;;;;;;;;;;8426709;27;27314;-74
2022/07/12 12:30:40;;;;;;;;;;;;;;;;;;8428482;27;27327;-74
2022/07/12 12:34:40;;;;;;;;;;;;;;;;;;8423204;27;27396;-74
2022/07/12 12:38:42;;;;;;;;;;;;;;;;;;8438550;27;27199;-74
2022/07/12 12:42:42;;;;;;;;;;;;;;;;;;8432429;27;27309;-74
2022/07/12 12:46:42;;;;;;;;;;;;;;;;;;8439806;27;27423;-73
2022/07/12 12:50:42;;;;;;;;;;;;;;;;;;8430270;27;28305;-73
2022/07/12 12:54:42;;;;;;;;;;;;;;;;;;8424249;27;27261;-73
2022/07/12 12:58:42;;;;;;;;;;;;;;;;;;8435481;27;27087;-73
2022/07/12 13:02:42;;;;;;;;;;;;;;;;;;8426473;27;28618;-73
2022/07/12 13:06:43;;;;;;;;;;;;;;;;;;8433975;27;27239;-73
2022/07/12 13:10:43;;;;;;;;;;;;;;;;;;8434834;27;27421;-73
2022/07/12 13:14:43;;;;;;;;;;;;;;;;;;8431908;27;27198;-74
2022/07/12 13:18:43;;;;;;;;;;;;;;;;;;8434146;27;28377;-73
2022/07/12 13:22:43;;;;;;;;;;;;;;;;;;8417869;27;27141;-73
2022/07/12 13:26:43;;;;;;;;;;;;;;;;;;8411205;27;27352;-73
2022/07/12 13:30:44;;;;;;;;;;;;;;;;;;8417745;27;27128;-73
2022/07/12 13:34:44;;;;;;;;;;;;;;;;;;8430086;27;27328;-74
2022/07/12 13:38:44;;;;;;;;;;;;;;;;;;8432741;27;29187;-74
2022/07/12 13:42:44;;;;;;;;;;;;;;;;;;8432487;27;27500;-75
2022/07/12 13:46:44;;;;;;;;;;;;;;;;;;8434719;27;27421;-74
2022/07/12 13:50:44;;;;;;;;;;;;;;;;;;8427303;27;27835;-73
2022/07/12 13:54:45;;;;;;;;;;;;;;;;;;8423088;27;27348;-73
2022/07/12 13:58:45;;;;;;;;;;;;;;;;;;8414712;27;27364;-74
2022/07/12 14:02:45;;;;;;;;;;;;;;;;;;8417126;27;27761;-74
2022/07/12 14:06:47;;;;;;;;;;;;;;;;;;8419697;27;27550;-74
2022/07/12 14:10:47;;;;;;;;;;;;;;;;;;8417618;27;27714;-74
2022/07/12 14:19:06;;;;;;;;;;;;;;;;;;8419941;27;27103;-73
2022/07/12 14:23:06;;;;;;;;;;;;;;;;;;8416723;27;27146;-73
2022/07/12 14:27:06;;;;;;;;;;;;;;;;;;8412745;27;27586;-74
2022/07/12 14:31:07;;;;;;;;;;;;;;;;;;8416748;27;27599;-74
2022/07/12 14:35:07;;;;;;;;;;;;;;;;;;8414560;27;27384;-74
2022/07/12 14:39:07;;;;;;;;;;;;;;;;;;8416075;27;27445;-74
2022/07/12 14:43:07;;;;;;;;;;;;;;;;;;8414084;27;27763;-74
2022/07/12 14:47:07;;;;;;;;;;;;;;;;;;8416209;27;27472;-74
2022/07/12 14:51:08;;;;;;;;;;;;;;;;;;8417719;27;27201;-74
2022/07/12 14:55:08;;;;;;;;;;;;;;;;;;8417620;27;27345;-74
2022/07/12 14:59:08;;;;;;;;;;;;;;;;;;8417505;27;27322;-73
2022/07/12 15:03:08;;;;;;;;;;;;;;;;;;8414044;27;27502;-73
2022/07/12 15:07:08;;;;;;;;;;;;;;;;;;8416122;27;27094;-74
2022/07/12 15:11:08;;;;;;;;;;;;;;;;;;8415236;27;27402;-74
2022/07/12 15:15:08;;;;;;;;;;;;;;;;;;8415989;27;27344;-74
2022/07/12 15:19:09;;;;;;;;;;;;;;;;;;8413033;27;29396;-73
2022/07/12 15:23:09;;;;;;;;;;;;;;;;;;8410433;27;27376;-74
2022/07/12 15:27:09;;;;;;;;;;;;;;;;;;8413527;27;27505;-73
2022/07/12 15:31:10;;;;;;;;;;;;;;;;;;8412271;27;27194;-73
2022/07/12 15:35:10;;;;;;;;;;;;;;;;;;8417074;27;27478;-74
2022/07/12 15:39:10;;;;;;;;;;;;;;;;;;8412949;27;27722;-74
2022/07/12 15:43:11;;;;;;;;;;;;;;;;;;8443109;27;28144;-74
2022/07/12 15:47:13;;;;;;;;;;;;;;;;;;8410863;27;27568;-73
2022/07/12 15:51:13;;;;;;;;;;;;;;;;;;8412324;27;27320;-74
2022/07/12 15:55:13;;;;;;;;;;;;;;;;;;8413003;27;27819;-74
2022/07/12 15:59:13;;;;;;;;;;;;;;;;;;8413440;27;27424;-74
2022/07/12 16:03:15;;;;;;;;;;;;;;;;;;8414088;27;27407;-73
2022/07/12 16:07:15;;;;;;;;;;;;;;;;;;8410520;27;28560;-74
2022/07/12 16:11:15;;;;;;;;;;;;;;;;;;8414093;27;27320;-74
2022/07/12 16:15:15;;;;;;;;;;;;;;;;;;8412156;27;27503;-74
2022/07/12 16:19:16;;;;;;;;;;;;;;;;;;8418035;27;27406;-74
2022/07/12 16:23:16;;;;;;;;;;;;;;;;;;8415011;27;27414;-74
2022/07/12 16:27:16;;;;;;;;;;;;;;;;;;8413275;27;27421;-74
2022/07/12 16:31:16;;;;;;;;;;;;;;;;;;8409044;27;27238;-74
2022/07/12 16:35:16;;;;;;;;;;;;;;;;;;8408434;27;28466;-74
2022/07/12 16:39:19;;;;;;;;;;;;;;;;;;8409176;27;27168;-74
2022/07/12 16:43:19;;;;;;;;;;;;;;;;;;8413936;27;27996;-74
2022/07/12 16:47:19;;;;;;;;;;;;;;;;;;8412421;27;27358;-74
2022/07/12 16:51:22;;;;;;;;;;;;;;;;;;8412134;27;27306;-74
2022/07/12 16:55:22;;;;;;;;;;;;;;;;;;8415192;27;27610;-74
2022/07/12 16:59:22;;;;;;;;;;;;;;;;;;8412666;27;29382;-74
2022/07/12 17:03:22;;;;;;;;;;;;;;;;;;8418946;27;27822;-74
2022/07/12 17:07:22;;;;;;;;;;;;;;;;;;8417685;27;29115;-74
2022/07/12 17:11:23;;;;;;;;;;;;;;;;;;8420921;27;27167;-74
2022/07/12 17:15:23;;;;;;;;;;;;;;;;;;8416260;27;27753;-73
2022/07/12 17:19:23;;;;;;;;;;;;;;;;;;8417447;27;28233;-73
2022/07/12 17:23:23;;;;;;;;;;;;;;;;;;8417399;27;27559;-73
2022/07/12 17:27:23;;;;;;;;;;;;;;;;;;8415613;27;27405;-73
2022/07/12 17:31:24;;;;;;;;;;;;;;;;;;8417043;27;27113;-74
2022/07/12 17:35:24;;;;;;;;;;;;;;;;;;8418181;27;27163;-74
2022/07/12 17:39:24;;;;;;;;;;;;;;;;;;8414233;27;27325;-74
2022/07/12 17:43:25;;;;;;;;;;;;;;;;;;8417327;27;27785;-74
2022/07/12 17:47:25;;;;;;;;;;;;;;;;;;8415279;27;27735;-73
2022/07/12 17:51:27;;;;;;;;;;;;;;;;;;8417395;27;27862;-73
2022/07/12 17:55:27;;;;;;;;;;;;;;;;;;8415608;27;27243;-73
2022/07/12 17:59:29;;;;;;;;;;;;;;;;;;8412229;27;27540;-73
2022/07/12 18:03:30;;;;;;;;;;;;;;;;;;8412988;27;27967;-73
2022/07/12 18:07:30;;;;;;;;;;;;;;;;;;8414563;27;28153;-73
2022/07/12 18:15:48;;;;;;;;;;;;;;;;;;8413857;27;27390;-72
2022/07/12 18:19:49;;;;;;;;;;;;;;;;;;8412065;27;27493;-73
2022/07/12 18:23:49;;;;;;;;;;;;;;;;;;8413923;27;27192;-73
2022/07/12 18:27:49;;;;;;;;;;;;;;;;;;8414595;27;28014;-73
2022/07/12 18:31:49;;;;;;;;;;;;;;;;;;8412692;27;27582;-73
2022/07/12 18:35:50;;;;;;;;;;;;;;;;;;8414839;27;27642;-73
2022/07/12 18:39:50;;;;;;;;;;;;;;;;;;8413496;27;27596;-73
2022/07/12 18:43:51;;;;;;;;;;;;;;;;;;8418033;27;28273;-73
2022/07/12 18:47:51;;;;;;;;;;;;;;;;;;8414378;27;28275;-73
2022/07/12 18:51:52;;;;;;;;;;;;;;;;;;8414018;27;28328;-73
2022/07/12 18:55:52;;;;;;;;;;;;;;;;;;8414259;27;28265;-73
2022/07/12 18:59:52;;;;;;;;;;;;;;;;;;8412251;27;27569;-73
2022/07/12 19:03:52;;;;;;;;;;;;;;;;;;8413629;27;28594;-73
2022/07/12 19:07:52;;;;;;;;;;;;;;;;;;8415435;27;27157;-73
2022/07/12 19:11:54;;;;;;;;;;;;;;;;;;8409296;27;29165;-73
2022/07/12 19:15:55;;;;;;;;;;;;;;;;;;8412153;27;27406;-73
2022/07/12 19:19:55;;;;;;;;;;;;;;;;;;8412375;27;27607;-73
2022/07/12 19:23:57;;;;;;;;;;;;;;;;;;8409257;27;27357;-73
2022/07/12 19:27:58;;;;;;;;;;;;;;;;;;8413238;27;27352;-73
2022/07/12 19:31:58;;;;;;;;;;;;;;;;;;8407684;27;27170;-73
2022/07/12 19:35:58;;;;;;;;;;;;;;;;;;8415751;27;27508;-73
2022/07/12 19:39:58;;;;;;;;;;;;;;;;;;8411239;27;27911;-73
2022/07/12 19:43:58;;;;;;;;;;;;;;;;;;8410806;27;27264;-73
2022/07/12 19:47:58;;;;;;;;;;;;;;;;;;8412048;27;27178;-73
2022/07/12 19:51:58;;;;;;;;;;;;;;;;;;8409060;27;27435;-73
2022/07/12 19:55:58;;;;;;;;;;;;;;;;;;8410029;27;27322;-73
2022/07/12 19:59:59;;;;;;;;;;;;;;;;;;8417121;27;27693;-73
2022/07/12 20:03:59;;;;;;;;;;;;;;;;;;8408051;27;27422;-73
2022/07/12 20:08:01;;;;;;;;;;;;;;;;;;8412098;27;27320;-72
2022/07/12 20:12:01;;;;;;;;;;;;;;;;;;8413194;27;27119;-73
2022/07/12 20:16:01;;;;;;;;;;;;;;;;;;8410145;27;27236;-73
2022/07/12 20:20:02;;;;;;;;;;;;;;;;;;8413482;27;27911;-73
2022/07/12 20:24:02;;;;;;;;;;;;;;;;;;8415052;27;29245;-73
2022/07/12 20:28:02;;;;;;;;;;;;;;;;;;8409929;27;27402;-73
2022/07/12 20:32:02;;;;;;;;;;;;;;;;;;8409142;27;27475;-73
2022/07/12 20:36:03;;;;;;;;;;;;;;;;;;8410432;27;27569;-73
2022/07/12 20:40:03;;;;;;;;;;;;;;;;;;8409302;27;27417;-73
2022/07/12 20:44:03;;;;;;;;;;;;;;;;;;8409876;27;27658;-73
2022/07/12 20:48:03;;;;;;;;;;;;;;;;;;8414587;27;28490;-73
2022/07/12 20:52:03;;;;;;;;;;;;;;;;;;8408588;27;27200;-73
2022/07/12 20:56:03;;;;;;;;;;;;;;;;;;8406463;27;27783;-73
2022/07/12 21:00:04;;;;;;;;;;;;;;;;;;8408504;27;27712;-73
2022/07/12 21:04:04;;;;;;;;;;;;;;;;;;8408994;27;27536;-73
2022/07/12 21:08:05;;;;;;;;;;;;;;;;;;8408938;27;27423;-73
2022/07/12 21:12:05;;;;;;;;;;;;;;;;;;8414302;27;27436;-74
2022/07/12 21:16:06;;;;;;;;;;;;;;;;;;8413473;27;27319;-74
2022/07/12 21:20:06;;;;;;;;;;;;;;;;;;8411034;27;27258;-74
2022/07/12 21:24:06;;;;;;;;;;;;;;;;;;8411903;27;27154;-74
2022/07/12 21:28:06;;;;;;;;;;;;;;;;;;8446228;27;29689;-74
2022/07/12 21:32:06;;;;;;;;;;;;;;;;;;8411671;27;27447;-74
2022/07/12 21:36:07;;;;;;;;;;;;;;;;;;8410666;27;27218;-73
2022/07/12 21:40:07;;;;;;;;;;;;;;;;;;8409478;27;27331;-74
2022/07/12 21:44:07;;;;;;;;;;;;;;;;;;8414526;27;27429;-74
2022/07/12 21:48:07;;;;;;;;;;;;;;;;;;8411925;27;28488;-74
2022/07/12 21:52:07;;;;;;;;;;;;;;;;;;8417095;27;28281;-74
2022/07/12 21:56:07;;;;;;;;;;;;;;;;;;8416949;27;27306;-74
2022/07/12 22:00:07;;;;;;;;;;;;;;;;;;8415380;27;27218;-74
2022/07/12 22:04:07;;;;;;;;;;;;;;;;;;8414891;27;27567;-74
2022/07/12 22:08:08;;;;;;;;;;;;;;;;;;8414415;27;27081;-73
2022/07/12 22:12:08;;;;;;;;;;;;;;;;;;8414279;27;27162;-73
2022/07/12 22:16:08;;;;;;;;;;;;;;;;;;8417878;27;27304;-72
2022/07/12 22:20:08;;;;;;;;;;;;;;;;;;8420404;27;28373;-72
2022/07/12 22:24:11;;;;;;;;;;;;;;;;;;8410748;27;27320;-73
2022/07/12 22:28:11;;;;;;;;;;;;;;;;;;8414083;27;27363;-73
2022/07/12 22:32:11;;;;;;;;;;;;;;;;;;8414589;27;27128;-73
2022/07/12 22:36:12;;;;;;;;;;;;;;;;;;8417868;27;28608;-73
2022/07/12 22:40:12;;;;;;;;;;;;;;;;;;8412875;27;27555;-73
2022/07/12 22:44:12;;;;;;;;;;;;;;;;;;8415370;27;27539;-73
2022/07/12 22:48:12;;;;;;;;;;;;;;;;;;8412808;27;27503;-73
2022/07/12 22:52:12;;;;;;;;;;;;;;;;;;8415047;27;27389;-73
2022/07/12 22:56:12;;;;;;;;;;;;;;;;;;8412397;27;27452;-73
2022/07/12 23:00:13;;;;;;;;;;;;;;;;;;8411493;27;27175;-73
2022/07/12 23:04:13;;;;;;;;;;;;;;;;;;8414585;27;27200;-73
2022/07/12 23:08:13;;;;;;;;;;;;;;;;;;8408624;27;27582;-73
2022/07/12 23:12:13;;;;;;;;;;;;;;;;;;8411679;27;27535;-73
2022/07/12 23:16:13;;;;;;;;;;;;;;;;;;8413304;27;27363;-73
2022/07/12 23:20:13;;;;;;;;;;;;;;;;;;8410665;27;28009;-72
2022/07/12 23:24:14;;;;;;;;;;;;;;;;;;8415624;27;27187;-73
2022/07/12 23:28:14;;;;;;;;;;;;;;;;;;8408819;27;27404;-73
2022/07/12 23:32:14;;;;;;;;;;;;;;;;;;8414354;27;27120;-73
2022/07/12 23:36:14;;;;;;;;;;;;;;;;;;8413832;27;27334;-73
2022/07/12 23:40:14;;;;;;;;;;;;;;;;;;8412315;27;27174;-73
2022/07/12 23:44:14;;;;;;;;;;;;;;;;;;8415993;27;27381;-73
2022/07/12 23:48:14;;;;;;;;;;;;;;;;;;8414295;27;27308;-73
2022/07/12 23:52:15;;;;;;;;;;;;;;;;;;8410085;27;27358;-73
2022/07/12 23:56:15;;;;;;;;;;;;;;;;;;8410635;27;27354;-73
